sensor_id;sensor_type;location;lat;lon;timestamp;P1;durP1;ratioP1;P2;durP2;ratioP2
18653;SDS011;9456;47.824;16.228;2024-02-15T00:02:13;5.13;;;4.63;;
18653;SDS011;9456;47.824;16.228;2024-02-15T00:04:41;4.60;;;4.20;;
18653;SDS011;9456;47.824;16.228;2024-02-15T00:07:09;5.13;;;4.53;;
18653;SDS011;9456;47.824;16.228;2024-02-15T00:09:37;10.17;;;7.77;;
18653;SDS011;9456;47.824;16.228;2024-02-15T00:12:06;6.03;;;4.23;;
18653;SDS011;9456;47.824;16.228;2024-02-15T00:14:34;12.80;;;9.90;;
18653;SDS011;9456;47.824;16.228;2024-02-15T00:17:02;7.37;;;5.37;;
18653;SDS011;9456;47.824;16.228;2024-02-15T00:19:30;7.33;;;5.70;;
18653;SDS011;9456;47.824;16.228;2024-02-15T00:21:58;10.00;;;5.43;;
18653;SDS011;9456;47.824;16.228;2024-02-15T00:24:26;5.50;;;4.70;;
18653;SDS011;9456;47.824;16.228;2024-02-15T00:26:54;6.20;;;5.47;;
18653;SDS011;9456;47.824;16.228;2024-02-15T00:29:22;5.43;;;4.83;;
18653;SDS011;9456;47.824;16.228;2024-02-15T00:31:50;5.27;;;4.77;;
18653;SDS011;9456;47.824;16.228;2024-02-15T00:34:18;5.73;;;4.90;;
18653;SDS011;9456;47.824;16.228;2024-02-15T00:36:46;5.43;;;4.17;;
18653;SDS011;9456;47.824;16.228;2024-02-15T00:39:14;7.40;;;4.17;;
18653;SDS011;9456;47.824;16.228;2024-02-15T00:41:42;5.37;;;4.00;;
18653;SDS011;9456;47.824;16.228;2024-02-15T00:44:10;4.37;;;3.97;;
18653;SDS011;9456;47.824;16.228;2024-02-15T00:46:38;5.03;;;3.97;;
18653;SDS011;9456;47.824;16.228;2024-02-15T00:49:06;5.27;;;4.23;;
18653;SDS011;9456;47.824;16.228;2024-02-15T00:51:35;5.60;;;5.03;;
18653;SDS011;9456;47.824;16.228;2024-02-15T00:54:02;7.17;;;5.90;;
18653;SDS011;9456;47.824;16.228;2024-02-15T00:56:30;8.07;;;6.67;;
18653;SDS011;9456;47.824;16.228;2024-02-15T01:01:26;10.50;;;7.90;;
18653;SDS011;9456;47.824;16.228;2024-02-15T01:03:54;7.23;;;5.70;;
18653;SDS011;9456;47.824;16.228;2024-02-15T01:06:22;6.87;;;6.03;;
18653;SDS011;9456;47.824;16.228;2024-02-15T01:08:51;10.43;;;8.50;;
18653;SDS011;9456;47.824;16.228;2024-02-15T01:11:19;11.10;;;8.90;;
18653;SDS011;9456;47.824;16.228;2024-02-15T01:13:47;11.57;;;9.00;;
18653;SDS011;9456;47.824;16.228;2024-02-15T01:16:15;12.33;;;9.30;;
18653;SDS011;9456;47.824;16.228;2024-02-15T01:18:43;7.87;;;6.30;;
18653;SDS011;9456;47.824;16.228;2024-02-15T01:21:11;7.33;;;4.43;;
18653;SDS011;9456;47.824;16.228;2024-02-15T01:23:39;6.27;;;5.03;;
18653;SDS011;9456;47.824;16.228;2024-02-15T01:26:07;4.10;;;3.70;;
18653;SDS011;9456;47.824;16.228;2024-02-15T01:28:35;4.00;;;3.47;;
18653;SDS011;9456;47.824;16.228;2024-02-15T01:31:03;6.10;;;3.80;;
18653;SDS011;9456;47.824;16.228;2024-02-15T01:33:31;4.33;;;3.80;;
18653;SDS011;9456;47.824;16.228;2024-02-15T01:35:59;5.70;;;4.00;;
18653;SDS011;9456;47.824;16.228;2024-02-15T01:38:27;4.20;;;3.80;;
18653;SDS011;9456;47.824;16.228;2024-02-15T01:40:55;5.07;;;4.40;;
18653;SDS011;9456;47.824;16.228;2024-02-15T01:43:23;4.20;;;3.80;;
18653;SDS011;9456;47.824;16.228;2024-02-15T01:45:51;4.03;;;3.70;;
18653;SDS011;9456;47.824;16.228;2024-02-15T01:48:19;3.93;;;3.53;;
18653;SDS011;9456;47.824;16.228;2024-02-15T01:50:47;5.07;;;4.57;;
18653;SDS011;9456;47.824;16.228;2024-02-15T01:53:15;5.77;;;4.50;;
18653;SDS011;9456;47.824;16.228;2024-02-15T01:55:43;5.80;;;4.63;;
18653;SDS011;9456;47.824;16.228;2024-02-15T01:58:11;3.87;;;3.57;;
18653;SDS011;9456;47.824;16.228;2024-02-15T02:00:39;3.97;;;3.67;;
18653;SDS011;9456;47.824;16.228;2024-02-15T02:03:07;3.73;;;3.43;;
18653;SDS011;9456;47.824;16.228;2024-02-15T02:05:35;3.60;;;3.30;;
18653;SDS011;9456;47.824;16.228;2024-02-15T02:08:04;3.90;;;3.50;;
18653;SDS011;9456;47.824;16.228;2024-02-15T02:10:32;3.40;;;3.07;;
18653;SDS011;9456;47.824;16.228;2024-02-15T02:13:01;4.47;;;3.23;;
18653;SDS011;9456;47.824;16.228;2024-02-15T02:15:29;4.03;;;3.13;;
18653;SDS011;9456;47.824;16.228;2024-02-15T02:17:57;4.13;;;2.97;;
18653;SDS011;9456;47.824;16.228;2024-02-15T02:20:26;3.20;;;2.90;;
18653;SDS011;9456;47.824;16.228;2024-02-15T02:22:54;4.20;;;2.80;;
18653;SDS011;9456;47.824;16.228;2024-02-15T02:25:23;3.40;;;3.10;;
18653;SDS011;9456;47.824;16.228;2024-02-15T02:27:51;2.77;;;2.57;;
18653;SDS011;9456;47.824;16.228;2024-02-15T02:30:19;3.10;;;2.80;;
18653;SDS011;9456;47.824;16.228;2024-02-15T02:32:47;5.20;;;2.97;;
18653;SDS011;9456;47.824;16.228;2024-02-15T02:35:15;3.17;;;2.87;;
18653;SDS011;9456;47.824;16.228;2024-02-15T02:37:43;2.43;;;2.23;;
18653;SDS011;9456;47.824;16.228;2024-02-15T02:40:11;2.50;;;2.30;;
18653;SDS011;9456;47.824;16.228;2024-02-15T02:42:47;2.60;;;2.03;;
18653;SDS011;9456;47.824;16.228;2024-02-15T02:45:15;2.60;;;2.17;;
18653;SDS011;9456;47.824;16.228;2024-02-15T02:47:43;2.27;;;2.10;;
18653;SDS011;9456;47.824;16.228;2024-02-15T02:50:11;2.10;;;1.93;;
18653;SDS011;9456;47.824;16.228;2024-02-15T02:52:39;2.73;;;2.53;;
18653;SDS011;9456;47.824;16.228;2024-02-15T02:55:07;3.07;;;2.50;;
18653;SDS011;9456;47.824;16.228;2024-02-15T02:57:36;2.90;;;2.60;;
18653;SDS011;9456;47.824;16.228;2024-02-15T03:00:06;2.70;;;2.50;;
18653;SDS011;9456;47.824;16.228;2024-02-15T03:02:35;2.60;;;2.40;;
18653;SDS011;9456;47.824;16.228;2024-02-15T03:05:03;3.00;;;2.70;;
18653;SDS011;9456;47.824;16.228;2024-02-15T03:07:33;2.50;;;2.30;;
18653;SDS011;9456;47.824;16.228;2024-02-15T03:10:01;4.03;;;2.83;;
18653;SDS011;9456;47.824;16.228;2024-02-15T03:12:30;2.73;;;2.53;;
18653;SDS011;9456;47.824;16.228;2024-02-15T03:14:58;2.53;;;2.33;;
18653;SDS011;9456;47.824;16.228;2024-02-15T03:17:26;2.87;;;2.67;;
18653;SDS011;9456;47.824;16.228;2024-02-15T03:19:54;3.47;;;2.77;;
18653;SDS011;9456;47.824;16.228;2024-02-15T03:22:22;2.80;;;2.60;;
18653;SDS011;9456;47.824;16.228;2024-02-15T03:24:51;3.23;;;2.93;;
18653;SDS011;9456;47.824;16.228;2024-02-15T03:27:19;3.10;;;2.73;;
18653;SDS011;9456;47.824;16.228;2024-02-15T03:29:47;2.97;;;2.77;;
18653;SDS011;9456;47.824;16.228;2024-02-15T03:32:15;2.13;;;2.03;;
18653;SDS011;9456;47.824;16.228;2024-02-15T03:34:43;2.87;;;2.63;;
18653;SDS011;9456;47.824;16.228;2024-02-15T03:37:11;2.60;;;2.40;;
18653;SDS011;9456;47.824;16.228;2024-02-15T03:39:39;2.73;;;2.40;;
18653;SDS011;9456;47.824;16.228;2024-02-15T03:42:07;3.43;;;2.60;;
18653;SDS011;9456;47.824;16.228;2024-02-15T03:44:35;2.83;;;2.60;;
18653;SDS011;9456;47.824;16.228;2024-02-15T03:47:04;2.50;;;2.30;;
18653;SDS011;9456;47.824;16.228;2024-02-15T03:49:32;2.43;;;2.17;;
18653;SDS011;9456;47.824;16.228;2024-02-15T03:52:00;2.30;;;2.10;;
18653;SDS011;9456;47.824;16.228;2024-02-15T03:54:28;2.50;;;2.30;;
18653;SDS011;9456;47.824;16.228;2024-02-15T03:56:56;2.50;;;2.03;;
18653;SDS011;9456;47.824;16.228;2024-02-15T03:59:24;2.20;;;2.00;;
18653;SDS011;9456;47.824;16.228;2024-02-15T04:01:52;2.30;;;2.10;;
18653;SDS011;9456;47.824;16.228;2024-02-15T04:04:20;2.20;;;2.00;;
18653;SDS011;9456;47.824;16.228;2024-02-15T04:06:49;2.20;;;2.10;;
18653;SDS011;9456;47.824;16.228;2024-02-15T04:09:16;2.30;;;2.10;;
18653;SDS011;9456;47.824;16.228;2024-02-15T04:11:45;2.57;;;2.37;;
18653;SDS011;9456;47.824;16.228;2024-02-15T04:14:13;2.57;;;2.33;;
18653;SDS011;9456;47.824;16.228;2024-02-15T04:16:41;2.47;;;2.03;;
18653;SDS011;9456;47.824;16.228;2024-02-15T04:19:10;3.93;;;2.23;;
18653;SDS011;9456;47.824;16.228;2024-02-15T04:21:37;1.87;;;1.77;;
18653;SDS011;9456;47.824;16.228;2024-02-15T04:24:06;1.90;;;1.80;;
18653;SDS011;9456;47.824;16.228;2024-02-15T04:26:34;3.37;;;2.60;;
18653;SDS011;9456;47.824;16.228;2024-02-15T04:29:02;3.33;;;2.73;;
18653;SDS011;9456;47.824;16.228;2024-02-15T04:31:30;2.87;;;2.23;;
18653;SDS011;9456;47.824;16.228;2024-02-15T04:33:58;2.17;;;1.97;;
18653;SDS011;9456;47.824;16.228;2024-02-15T04:36:26;1.83;;;1.73;;
18653;SDS011;9456;47.824;16.228;2024-02-15T04:38:54;2.00;;;1.90;;
18653;SDS011;9456;47.824;16.228;2024-02-15T04:41:22;2.50;;;2.30;;
18653;SDS011;9456;47.824;16.228;2024-02-15T04:43:50;2.63;;;2.43;;
18653;SDS011;9456;47.824;16.228;2024-02-15T04:46:18;2.83;;;2.53;;
18653;SDS011;9456;47.824;16.228;2024-02-15T04:48:47;3.07;;;2.20;;
18653;SDS011;9456;47.824;16.228;2024-02-15T04:51:15;3.50;;;2.20;;
18653;SDS011;9456;47.824;16.228;2024-02-15T04:53:44;2.63;;;2.43;;
18653;SDS011;9456;47.824;16.228;2024-02-15T04:56:12;2.83;;;2.63;;
18653;SDS011;9456;47.824;16.228;2024-02-15T04:58:41;4.37;;;2.90;;
18653;SDS011;9456;47.824;16.228;2024-02-15T05:01:10;4.63;;;3.10;;
18653;SDS011;9456;47.824;16.228;2024-02-15T05:03:38;4.83;;;3.20;;
18653;SDS011;9456;47.824;16.228;2024-02-15T05:06:06;5.90;;;2.97;;
18653;SDS011;9456;47.824;16.228;2024-02-15T05:08:34;4.43;;;3.03;;
18653;SDS011;9456;47.824;16.228;2024-02-15T05:11:02;4.37;;;3.90;;
18653;SDS011;9456;47.824;16.228;2024-02-15T05:13:31;3.17;;;2.80;;
18653;SDS011;9456;47.824;16.228;2024-02-15T05:16:02;4.73;;;2.90;;
18653;SDS011;9456;47.824;16.228;2024-02-15T05:18:30;3.07;;;2.70;;
18653;SDS011;9456;47.824;16.228;2024-02-15T05:20:58;3.20;;;2.80;;
18653;SDS011;9456;47.824;16.228;2024-02-15T05:23:26;4.47;;;2.70;;
18653;SDS011;9456;47.824;16.228;2024-02-15T05:25:54;6.70;;;2.40;;
18653;SDS011;9456;47.824;16.228;2024-02-15T05:28:22;7.67;;;2.80;;
18653;SDS011;9456;47.824;16.228;2024-02-15T05:30:51;3.43;;;2.07;;
18653;SDS011;9456;47.824;16.228;2024-02-15T05:33:19;5.70;;;2.57;;
18653;SDS011;9456;47.824;16.228;2024-02-15T05:35:47;2.87;;;2.40;;
18653;SDS011;9456;47.824;16.228;2024-02-15T05:38:15;4.17;;;2.80;;
18653;SDS011;9456;47.824;16.228;2024-02-15T05:40:43;6.17;;;2.60;;
18653;SDS011;9456;47.824;16.228;2024-02-15T05:43:11;8.37;;;2.33;;
18653;SDS011;9456;47.824;16.228;2024-02-15T05:45:39;3.57;;;2.30;;
18653;SDS011;9456;47.824;16.228;2024-02-15T05:48:08;6.30;;;2.70;;
18653;SDS011;9456;47.824;16.228;2024-02-15T05:50:36;4.10;;;2.73;;
18653;SDS011;9456;47.824;16.228;2024-02-15T05:53:04;3.80;;;2.40;;
18653;SDS011;9456;47.824;16.228;2024-02-15T05:55:32;3.90;;;2.30;;
18653;SDS011;9456;47.824;16.228;2024-02-15T05:58:00;4.03;;;2.80;;
18653;SDS011;9456;47.824;16.228;2024-02-15T06:00:29;4.30;;;2.90;;
18653;SDS011;9456;47.824;16.228;2024-02-15T06:02:57;7.67;;;2.97;;
18653;SDS011;9456;47.824;16.228;2024-02-15T06:05:25;4.53;;;2.57;;
18653;SDS011;9456;47.824;16.228;2024-02-15T06:07:53;2.90;;;2.60;;
18653;SDS011;9456;47.824;16.228;2024-02-15T06:10:21;2.70;;;2.27;;
18653;SDS011;9456;47.824;16.228;2024-02-15T06:12:49;4.03;;;2.40;;
18653;SDS011;9456;47.824;16.228;2024-02-15T06:15:17;4.60;;;2.40;;
18653;SDS011;9456;47.824;16.228;2024-02-15T06:17:45;3.53;;;2.40;;
18653;SDS011;9456;47.824;16.228;2024-02-15T06:20:14;3.37;;;3.07;;
18653;SDS011;9456;47.824;16.228;2024-02-15T06:22:41;3.70;;;3.37;;
18653;SDS011;9456;47.824;16.228;2024-02-15T06:25:10;7.20;;;4.07;;
18653;SDS011;9456;47.824;16.228;2024-02-15T06:27:38;4.93;;;3.90;;
18653;SDS011;9456;47.824;16.228;2024-02-15T06:30:07;4.10;;;2.90;;
18653;SDS011;9456;47.824;16.228;2024-02-15T06:32:53;3.30;;;2.60;;
18653;SDS011;9456;47.824;16.228;2024-02-15T06:35:39;2.67;;;2.40;;
18653;SDS011;9456;47.824;16.228;2024-02-15T06:38:25;3.43;;;2.37;;
18653;SDS011;9456;47.824;16.228;2024-02-15T06:41:15;4.40;;;2.40;;
18653;SDS011;9456;47.824;16.228;2024-02-15T06:43:43;2.27;;;2.07;;
18653;SDS011;9456;47.824;16.228;2024-02-15T06:46:11;8.03;;;2.57;;
18653;SDS011;9456;47.824;16.228;2024-02-15T06:48:42;3.27;;;2.27;;
18653;SDS011;9456;47.824;16.228;2024-02-15T06:51:12;2.20;;;2.00;;
18653;SDS011;9456;47.824;16.228;2024-02-15T06:53:41;3.90;;;2.17;;
18653;SDS011;9456;47.824;16.228;2024-02-15T06:56:09;2.50;;;2.30;;
18653;SDS011;9456;47.824;16.228;2024-02-15T06:58:37;5.83;;;1.80;;
18653;SDS011;9456;47.824;16.228;2024-02-15T07:01:05;4.30;;;2.30;;
18653;SDS011;9456;47.824;16.228;2024-02-15T07:03:33;2.33;;;1.93;;
18653;SDS011;9456;47.824;16.228;2024-02-15T07:06:01;3.33;;;1.90;;
18653;SDS011;9456;47.824;16.228;2024-02-15T07:08:30;3.57;;;2.40;;
18653;SDS011;9456;47.824;16.228;2024-02-15T07:10:58;3.00;;;2.20;;
18653;SDS011;9456;47.824;16.228;2024-02-15T07:13:26;2.77;;;2.33;;
18653;SDS011;9456;47.824;16.228;2024-02-15T07:15:54;2.40;;;2.03;;
18653;SDS011;9456;47.824;16.228;2024-02-15T07:18:22;2.40;;;2.20;;
18653;SDS011;9456;47.824;16.228;2024-02-15T07:20:50;4.07;;;2.30;;
18653;SDS011;9456;47.824;16.228;2024-02-15T07:23:18;2.30;;;2.10;;
18653;SDS011;9456;47.824;16.228;2024-02-15T07:25:46;6.93;;;2.37;;
18653;SDS011;9456;47.824;16.228;2024-02-15T07:28:14;2.63;;;2.43;;
18653;SDS011;9456;47.824;16.228;2024-02-15T07:30:42;9.23;;;2.47;;
18653;SDS011;9456;47.824;16.228;2024-02-15T07:33:10;4.23;;;3.07;;
18653;SDS011;9456;47.824;16.228;2024-02-15T07:35:38;5.90;;;2.80;;
18653;SDS011;9456;47.824;16.228;2024-02-15T07:38:06;5.03;;;2.63;;
18653;SDS011;9456;47.824;16.228;2024-02-15T07:40:34;3.10;;;2.00;;
18653;SDS011;9456;47.824;16.228;2024-02-15T07:43:03;2.63;;;2.00;;
18653;SDS011;9456;47.824;16.228;2024-02-15T07:45:31;2.83;;;2.03;;
18653;SDS011;9456;47.824;16.228;2024-02-15T07:47:59;2.00;;;1.87;;
18653;SDS011;9456;47.824;16.228;2024-02-15T07:50:27;2.03;;;1.93;;
18653;SDS011;9456;47.824;16.228;2024-02-15T07:52:55;1.97;;;1.80;;
18653;SDS011;9456;47.824;16.228;2024-02-15T07:55:23;3.13;;;1.93;;
18653;SDS011;9456;47.824;16.228;2024-02-15T07:57:51;2.97;;;2.10;;
18653;SDS011;9456;47.824;16.228;2024-02-15T08:00:19;3.20;;;2.50;;
18653;SDS011;9456;47.824;16.228;2024-02-15T08:02:47;3.87;;;2.67;;
18653;SDS011;9456;47.824;16.228;2024-02-15T08:05:15;5.43;;;1.97;;
18653;SDS011;9456;47.824;16.228;2024-02-15T08:07:44;3.27;;;2.07;;
18653;SDS011;9456;47.824;16.228;2024-02-15T08:10:11;3.00;;;2.50;;
18653;SDS011;9456;47.824;16.228;2024-02-15T08:12:41;2.40;;;2.30;;
18653;SDS011;9456;47.824;16.228;2024-02-15T08:15:09;2.87;;;2.30;;
18653;SDS011;9456;47.824;16.228;2024-02-15T08:17:42;2.90;;;2.60;;
18653;SDS011;9456;47.824;16.228;2024-02-15T08:20:10;2.93;;;2.27;;
18653;SDS011;9456;47.824;16.228;2024-02-15T08:22:38;3.83;;;2.50;;
18653;SDS011;9456;47.824;16.228;2024-02-15T08:25:08;3.37;;;2.10;;
18653;SDS011;9456;47.824;16.228;2024-02-15T08:27:35;4.23;;;2.63;;
18653;SDS011;9456;47.824;16.228;2024-02-15T08:30:04;8.80;;;2.63;;
18653;SDS011;9456;47.824;16.228;2024-02-15T08:32:33;6.00;;;3.17;;
18653;SDS011;9456;47.824;16.228;2024-02-15T08:35:01;5.43;;;2.23;;
18653;SDS011;9456;47.824;16.228;2024-02-15T08:37:29;5.93;;;2.30;;
18653;SDS011;9456;47.824;16.228;2024-02-15T08:39:57;5.30;;;2.10;;
18653;SDS011;9456;47.824;16.228;2024-02-15T08:42:25;6.77;;;3.00;;
18653;SDS011;9456;47.824;16.228;2024-02-15T08:44:53;4.37;;;2.30;;
18653;SDS011;9456;47.824;16.228;2024-02-15T08:47:21;5.53;;;1.77;;
18653;SDS011;9456;47.824;16.228;2024-02-15T08:49:49;4.53;;;2.23;;
18653;SDS011;9456;47.824;16.228;2024-02-15T08:52:17;6.47;;;2.40;;
18653;SDS011;9456;47.824;16.228;2024-02-15T08:54:45;6.80;;;2.20;;
18653;SDS011;9456;47.824;16.228;2024-02-15T08:57:13;3.57;;;1.90;;
18653;SDS011;9456;47.824;16.228;2024-02-15T08:59:41;2.87;;;2.10;;
18653;SDS011;9456;47.824;16.228;2024-02-15T09:02:09;2.37;;;1.50;;
18653;SDS011;9456;47.824;16.228;2024-02-15T09:04:37;2.43;;;2.00;;
18653;SDS011;9456;47.824;16.228;2024-02-15T09:07:05;4.93;;;2.23;;
18653;SDS011;9456;47.824;16.228;2024-02-15T09:09:33;2.37;;;1.80;;
18653;SDS011;9456;47.824;16.228;2024-02-15T09:12:02;2.30;;;1.60;;
18653;SDS011;9456;47.824;16.228;2024-02-15T09:14:31;6.17;;;1.80;;
18653;SDS011;9456;47.824;16.228;2024-02-15T09:16:59;3.93;;;1.93;;
18653;SDS011;9456;47.824;16.228;2024-02-15T09:19:27;6.50;;;1.83;;
18653;SDS011;9456;47.824;16.228;2024-02-15T09:21:56;5.40;;;1.43;;
18653;SDS011;9456;47.824;16.228;2024-02-15T09:24:24;4.30;;;1.70;;
18653;SDS011;9456;47.824;16.228;2024-02-15T09:26:52;3.60;;;1.43;;
18653;SDS011;9456;47.824;16.228;2024-02-15T09:29:20;6.63;;;2.13;;
18653;SDS011;9456;47.824;16.228;2024-02-15T09:31:48;4.13;;;1.47;;
18653;SDS011;9456;47.824;16.228;2024-02-15T09:34:17;3.03;;;1.90;;
18653;SDS011;9456;47.824;16.228;2024-02-15T09:36:45;3.33;;;1.40;;
18653;SDS011;9456;47.824;16.228;2024-02-15T09:39:13;2.60;;;1.13;;
18653;SDS011;9456;47.824;16.228;2024-02-15T09:41:41;1.50;;;1.40;;
18653;SDS011;9456;47.824;16.228;2024-02-15T09:44:10;4.10;;;1.20;;
18653;SDS011;9456;47.824;16.228;2024-02-15T09:46:41;1.33;;;1.23;;
18653;SDS011;9456;47.824;16.228;2024-02-15T09:49:06;3.33;;;1.83;;
18653;SDS011;9456;47.824;16.228;2024-02-15T09:51:34;2.10;;;1.90;;
18653;SDS011;9456;47.824;16.228;2024-02-15T09:54:02;3.07;;;2.70;;
18653;SDS011;9456;47.824;16.228;2024-02-15T09:56:30;3.07;;;2.50;;
18653;SDS011;9456;47.824;16.228;2024-02-15T09:58:58;6.53;;;2.83;;
18653;SDS011;9456;47.824;16.228;2024-02-15T10:01:26;3.00;;;2.70;;
18653;SDS011;9456;47.824;16.228;2024-02-15T10:03:54;4.13;;;2.63;;
18653;SDS011;9456;47.824;16.228;2024-02-15T10:06:22;3.30;;;2.10;;
18653;SDS011;9456;47.824;16.228;2024-02-15T10:08:50;3.30;;;2.00;;
18653;SDS011;9456;47.824;16.228;2024-02-15T10:11:18;2.90;;;2.10;;
18653;SDS011;9456;47.824;16.228;2024-02-15T10:13:46;2.00;;;1.90;;
18653;SDS011;9456;47.824;16.228;2024-02-15T10:16:17;4.30;;;2.90;;
18653;SDS011;9456;47.824;16.228;2024-02-15T10:18:45;3.33;;;1.87;;
18653;SDS011;9456;47.824;16.228;2024-02-15T10:21:24;1.90;;;1.70;;
18653;SDS011;9456;47.824;16.228;2024-02-15T10:24:03;1.90;;;1.80;;
18653;SDS011;9456;47.824;16.228;2024-02-15T10:26:32;3.07;;;1.70;;
18653;SDS011;9456;47.824;16.228;2024-02-15T10:29:05;1.70;;;1.60;;
18653;SDS011;9456;47.824;16.228;2024-02-15T10:31:34;2.50;;;2.20;;
18653;SDS011;9456;47.824;16.228;2024-02-15T10:34:03;1.40;;;1.27;;
18653;SDS011;9456;47.824;16.228;2024-02-15T10:36:31;2.27;;;1.60;;
18653;SDS011;9456;47.824;16.228;2024-02-15T10:41:49;1.53;;;1.43;;
18653;SDS011;9456;47.824;16.228;2024-02-15T10:44:16;1.43;;;1.43;;
18653;SDS011;9456;47.824;16.228;2024-02-15T10:46:48;2.47;;;2.10;;
18653;SDS011;9456;47.824;16.228;2024-02-15T10:49:16;3.43;;;2.20;;
18653;SDS011;9456;47.824;16.228;2024-02-15T10:51:44;2.07;;;1.87;;
18653;SDS011;9456;47.824;16.228;2024-02-15T10:54:12;2.20;;;2.00;;
18653;SDS011;9456;47.824;16.228;2024-02-15T10:56:43;2.50;;;2.30;;
18653;SDS011;9456;47.824;16.228;2024-02-15T10:59:15;4.27;;;2.30;;
18653;SDS011;9456;47.824;16.228;2024-02-15T11:01:41;1.80;;;1.70;;
18653;SDS011;9456;47.824;16.228;2024-02-15T11:04:09;2.83;;;2.33;;
18653;SDS011;9456;47.824;16.228;2024-02-15T11:06:38;2.60;;;2.30;;
18653;SDS011;9456;47.824;16.228;2024-02-15T11:09:05;3.13;;;2.60;;
18653;SDS011;9456;47.824;16.228;2024-02-15T11:11:33;2.50;;;2.30;;
18653;SDS011;9456;47.824;16.228;2024-02-15T11:16:47;2.43;;;2.27;;
18653;SDS011;9456;47.824;16.228;2024-02-15T11:19:25;2.80;;;2.60;;
18653;SDS011;9456;47.824;16.228;2024-02-15T11:21:53;2.40;;;2.20;;
18653;SDS011;9456;47.824;16.228;2024-02-15T11:24:28;2.53;;;2.33;;
18653;SDS011;9456;47.824;16.228;2024-02-15T11:26:58;2.10;;;2.00;;
18653;SDS011;9456;47.824;16.228;2024-02-15T11:32:12;2.50;;;2.30;;
18653;SDS011;9456;47.824;16.228;2024-02-15T11:34:43;2.33;;;2.13;;
18653;SDS011;9456;47.824;16.228;2024-02-15T11:39:59;2.63;;;2.43;;
18653;SDS011;9456;47.824;16.228;2024-02-15T11:42:28;2.80;;;2.43;;
18653;SDS011;9456;47.824;16.228;2024-02-15T11:45:06;2.70;;;2.50;;
18653;SDS011;9456;47.824;16.228;2024-02-15T11:47:36;2.67;;;2.47;;
18653;SDS011;9456;47.824;16.228;2024-02-15T11:50:03;2.77;;;2.57;;
18653;SDS011;9456;47.824;16.228;2024-02-15T11:52:31;2.77;;;2.50;;
18653;SDS011;9456;47.824;16.228;2024-02-15T11:55:05;2.63;;;2.43;;
18653;SDS011;9456;47.824;16.228;2024-02-15T11:57:33;3.47;;;3.00;;
18653;SDS011;9456;47.824;16.228;2024-02-15T12:00:06;3.43;;;2.77;;
18653;SDS011;9456;47.824;16.228;2024-02-15T12:03:03;3.40;;;3.10;;
18653;SDS011;9456;47.824;16.228;2024-02-15T12:05:48;3.67;;;2.93;;
18653;SDS011;9456;47.824;16.228;2024-02-15T12:08:34;4.23;;;2.90;;
18653;SDS011;9456;47.824;16.228;2024-02-15T12:11:20;3.83;;;2.40;;
18653;SDS011;9456;47.824;16.228;2024-02-15T12:14:06;3.03;;;2.30;;
18653;SDS011;9456;47.824;16.228;2024-02-15T12:17:02;2.50;;;2.30;;
18653;SDS011;9456;47.824;16.228;2024-02-15T12:19:48;2.70;;;2.50;;
18653;SDS011;9456;47.824;16.228;2024-02-15T12:22:16;2.90;;;2.60;;
18653;SDS011;9456;47.824;16.228;2024-02-15T12:24:44;3.23;;;2.60;;
18653;SDS011;9456;47.824;16.228;2024-02-15T12:27:12;2.70;;;2.40;;
18653;SDS011;9456;47.824;16.228;2024-02-15T12:29:40;2.70;;;2.50;;
18653;SDS011;9456;47.824;16.228;2024-02-15T12:32:08;2.50;;;2.33;;
18653;SDS011;9456;47.824;16.228;2024-02-15T12:34:36;2.57;;;2.37;;
18653;SDS011;9456;47.824;16.228;2024-02-15T12:37:07;5.40;;;2.80;;
18653;SDS011;9456;47.824;16.228;2024-02-15T12:39:36;2.77;;;2.30;;
18653;SDS011;9456;47.824;16.228;2024-02-15T12:42:06;2.60;;;2.40;;
18653;SDS011;9456;47.824;16.228;2024-02-15T12:44:32;2.37;;;2.10;;
18653;SDS011;9456;47.824;16.228;2024-02-15T12:47:00;4.17;;;2.17;;
18653;SDS011;9456;47.824;16.228;2024-02-15T12:49:29;2.40;;;2.20;;
18653;SDS011;9456;47.824;16.228;2024-02-15T12:54:43;2.30;;;2.20;;
18653;SDS011;9456;47.824;16.228;2024-02-15T12:57:11;2.80;;;2.57;;
18653;SDS011;9456;47.824;16.228;2024-02-15T12:59:40;2.90;;;2.63;;
18653;SDS011;9456;47.824;16.228;2024-02-15T13:02:08;2.63;;;2.40;;
18653;SDS011;9456;47.824;16.228;2024-02-15T13:04:36;2.87;;;2.60;;
18653;SDS011;9456;47.824;16.228;2024-02-15T13:07:04;3.27;;;2.57;;
18653;SDS011;9456;47.824;16.228;2024-02-15T13:09:33;3.27;;;2.87;;
18653;SDS011;9456;47.824;16.228;2024-02-15T13:12:01;5.23;;;2.90;;
18653;SDS011;9456;47.824;16.228;2024-02-15T13:14:29;5.47;;;3.20;;
18653;SDS011;9456;47.824;16.228;2024-02-15T13:16:57;3.10;;;2.90;;
18653;SDS011;9456;47.824;16.228;2024-02-15T13:19:25;3.20;;;2.90;;
18653;SDS011;9456;47.824;16.228;2024-02-15T13:21:53;5.87;;;3.13;;
18653;SDS011;9456;47.824;16.228;2024-02-15T13:24:21;4.80;;;3.03;;
18653;SDS011;9456;47.824;16.228;2024-02-15T13:26:49;5.20;;;3.17;;
18653;SDS011;9456;47.824;16.228;2024-02-15T13:29:17;3.00;;;2.80;;
18653;SDS011;9456;47.824;16.228;2024-02-15T13:31:45;3.10;;;2.90;;
18653;SDS011;9456;47.824;16.228;2024-02-15T13:34:13;3.67;;;2.60;;
18653;SDS011;9456;47.824;16.228;2024-02-15T13:36:41;2.93;;;2.73;;
18653;SDS011;9456;47.824;16.228;2024-02-15T13:39:24;3.40;;;2.93;;
18653;SDS011;9456;47.824;16.228;2024-02-15T13:41:52;4.57;;;2.73;;
18653;SDS011;9456;47.824;16.228;2024-02-15T13:44:20;4.27;;;2.73;;
18653;SDS011;9456;47.824;16.228;2024-02-15T13:46:48;3.77;;;2.57;;
18653;SDS011;9456;47.824;16.228;2024-02-15T13:49:16;2.63;;;2.43;;
18653;SDS011;9456;47.824;16.228;2024-02-15T13:51:44;4.30;;;2.53;;
18653;SDS011;9456;47.824;16.228;2024-02-15T13:54:12;2.87;;;2.67;;
18653;SDS011;9456;47.824;16.228;2024-02-15T13:56:40;3.53;;;2.70;;
18653;SDS011;9456;47.824;16.228;2024-02-15T13:59:08;2.87;;;2.60;;
18653;SDS011;9456;47.824;16.228;2024-02-15T14:01:36;2.53;;;2.33;;
18653;SDS011;9456;47.824;16.228;2024-02-15T14:04:05;3.23;;;2.70;;
18653;SDS011;9456;47.824;16.228;2024-02-15T14:06:33;2.63;;;2.43;;
18653;SDS011;9456;47.824;16.228;2024-02-15T14:09:01;2.93;;;2.57;;
18653;SDS011;9456;47.824;16.228;2024-02-15T14:11:29;2.90;;;2.30;;
18653;SDS011;9456;47.824;16.228;2024-02-15T14:13:57;2.63;;;2.43;;
18653;SDS011;9456;47.824;16.228;2024-02-15T14:16:25;3.07;;;2.77;;
18653;SDS011;9456;47.824;16.228;2024-02-15T14:18:53;2.60;;;2.40;;
18653;SDS011;9456;47.824;16.228;2024-02-15T14:21:21;3.00;;;2.70;;
18653;SDS011;9456;47.824;16.228;2024-02-15T14:23:49;3.33;;;3.03;;
18653;SDS011;9456;47.824;16.228;2024-02-15T14:26:17;3.60;;;2.70;;
18653;SDS011;9456;47.824;16.228;2024-02-15T14:28:45;2.90;;;2.60;;
18653;SDS011;9456;47.824;16.228;2024-02-15T14:31:17;3.20;;;2.90;;
18653;SDS011;9456;47.824;16.228;2024-02-15T14:33:59;3.90;;;3.13;;
18653;SDS011;9456;47.824;16.228;2024-02-15T14:36:27;3.60;;;3.30;;
18653;SDS011;9456;47.824;16.228;2024-02-15T14:38:55;3.40;;;3.10;;
18653;SDS011;9456;47.824;16.228;2024-02-15T14:41:23;4.33;;;3.07;;
18653;SDS011;9456;47.824;16.228;2024-02-15T14:43:51;3.73;;;3.00;;
18653;SDS011;9456;47.824;16.228;2024-02-15T14:46:19;3.40;;;3.10;;
18653;SDS011;9456;47.824;16.228;2024-02-15T14:48:47;4.23;;;3.83;;
18653;SDS011;9456;47.824;16.228;2024-02-15T14:51:16;3.40;;;3.10;;
18653;SDS011;9456;47.824;16.228;2024-02-15T14:53:44;4.40;;;4.00;;
18653;SDS011;9456;47.824;16.228;2024-02-15T14:56:12;3.77;;;3.20;;
18653;SDS011;9456;47.824;16.228;2024-02-15T14:58:40;3.27;;;2.97;;
18653;SDS011;9456;47.824;16.228;2024-02-15T15:01:08;3.50;;;3.20;;
18653;SDS011;9456;47.824;16.228;2024-02-15T15:03:36;5.13;;;3.70;;
18653;SDS011;9456;47.824;16.228;2024-02-15T15:06:04;3.20;;;2.90;;
18653;SDS011;9456;47.824;16.228;2024-02-15T15:08:50;3.70;;;3.40;;
18653;SDS011;9456;47.824;16.228;2024-02-15T15:11:36;4.63;;;3.50;;
18653;SDS011;9456;47.824;16.228;2024-02-15T15:14:22;3.10;;;2.90;;
18653;SDS011;9456;47.824;16.228;2024-02-15T15:16:50;3.30;;;3.00;;